Time;durP1;ratioP1;P1;durP2;ratioP2;P2;SDS_P1;SDS_P2;PMS_P1;PMS_P2;Temp;Humidity;BMP_temperature;BMP_pressure;BME280_temperature;BME280_humidity;BME280_pressure;Samples;Min_cycle;Max_cycle;Signal;HPM_P1;HPM_P2
2023/01/26 00:00:30;;;;;;;43.08;18.70;;;;;;;;;;10542697;28;20391;-77
2023/01/26 00:05:30;;;;;;;45.58;17.92;;;;;;;;;;10584750;28;20039;-76
2023/01/26 00:10:31;;;;;;;44.03;17.98;;;;;;;;;;10527283;28;20031;-76
2023/01/26 00:15:32;;;;;;;52.33;20.20;;;;;;;;;;10560918;28;20072;-77
2023/01/26 00:20:32;;;;;;;44.80;19.23;;;;;;;;;;10579584;28;20035;-74
2023/01/26 00:25:33;;;;;;;47.63;20.13;;;;;;;;;;10575305;28;20735;-75
2023/01/26 00:30:33;;;;;;;39.63;17.08;;;;;;;;;;10555527;28;20043;-77
2023/01/26 00:35:34;;;;;;;40.83;16.08;;;;;;;;;;10555585;28;20036;-77
2023/01/26 00:40:36;;;;;;;38.17;16.48;;;;;;;;;;10544774;28;20180;-75
2023/01/26 00:45:36;;;;;;;33.20;15.07;;;;;;;;;;10571430;28;20138;-76
2023/01/26 00:50:40;;;;;;;35.60;15.60;;;;;;;;;;10582340;28;20028;-74
2023/01/26 00:55:41;;;;;;;32.35;15.07;;;;;;;;;;10550149;28;20032;-74
2023/01/26 01:00:42;;;;;;;35.70;15.93;;;;;;;;;;10581482;28;20047;-74
2023/01/26 01:05:44;;;;;;;33.03;15.57;;;;;;;;;;10578072;28;20139;-79
2023/01/26 01:10:47;;;;;;;35.00;14.73;;;;;;;;;;10576034;28;20058;-75
2023/01/26 01:15:48;;;;;;;31.67;14.57;;;;;;;;;;10560907;28;20040;-75
2023/01/26 01:20:48;;;;;;;38.05;15.50;;;;;;;;;;10537115;28;20062;-75
2023/01/26 01:25:56;;;;;;;36.33;16.80;;;;;;;;;;10543317;28;20094;-79
2023/01/26 01:30:59;;;;;;;43.85;17.40;;;;;;;;;;10530578;28;20290;-74
2023/01/26 01:36:01;;;;;;;41.20;17.90;;;;;;;;;;10551157;28;20387;-77
2023/01/26 01:41:03;;;;;;;36.80;16.27;;;;;;;;;;10571742;28;20387;-76
2023/01/26 01:46:13;;;;;;;40.38;17.33;;;;;;;;;;10558830;28;20048;-77
2023/01/26 01:51:17;;;;;;;33.30;14.48;;;;;;;;;;10538013;28;20237;-74
2023/01/26 01:56:20;;;;;;;31.88;14.02;;;;;;;;;;10534522;28;20035;-76
2023/01/26 02:01:21;;;;;;;31.42;13.20;;;;;;;;;;10529620;28;20537;-75
2023/01/26 02:06:25;;;;;;;27.98;12.38;;;;;;;;;;10539538;28;20105;-75
2023/01/26 02:11:34;;;;;;;25.92;11.80;;;;;;;;;;10552916;27;20041;-76
2023/01/26 02:16:35;;;;;;;30.70;12.55;;;;;;;;;;10552396;28;20059;-78
2023/01/26 02:21:37;;;;;;;28.02;12.65;;;;;;;;;;10544218;28;20036;-76
2023/01/26 02:26:38;;;;;;;26.35;11.70;;;;;;;;;;10574187;28;20047;-76
2023/01/26 02:31:39;;;;;;;26.02;11.40;;;;;;;;;;10536981;28;20032;-76
2023/01/26 02:36:40;;;;;;;27.25;11.57;;;;;;;;;;10540758;28;20523;-73
2023/01/26 02:47:00;;;;;;;26.42;11.48;;;;;;;;;;10561729;28;20039;-73
2023/01/26 02:52:03;;;;;;;25.02;11.70;;;;;;;;;;10568881;28;20032;-74
2023/01/26 02:57:03;;;;;;;23.98;10.80;;;;;;;;;;10540595;28;20070;-74
2023/01/26 03:02:03;;;;;;;29.45;12.25;;;;;;;;;;10534585;28;20127;-76
2023/01/26 03:07:04;;;;;;;26.23;12.10;;;;;;;;;;10548934;28;20082;-76
2023/01/26 03:12:06;;;;;;;29.73;12.20;;;;;;;;;;10559946;28;20114;-76
2023/01/26 03:17:06;;;;;;;27.10;11.85;;;;;;;;;;10554912;27;20156;-74
2023/01/26 03:27:40;;;;;;;26.60;11.27;;;;;;;;;;10565396;28;20424;-74
2023/01/26 03:32:42;;;;;;;28.67;12.00;;;;;;;;;;10555342;28;20381;-74
2023/01/26 03:37:53;;;;;;;30.10;11.55;;;;;;;;;;10530178;27;20028;-74
2023/01/26 03:59:08;;;;;;;28.45;11.88;;;;;;;;;;10524199;28;20487;-75
2023/01/26 04:09:30;;;;;;;25.08;10.25;;;;;;;;;;10541920;27;20091;-77
2023/01/26 04:25:17;;;;;;;26.35;11.68;;;;;;;;;;10553423;28;20040;-80
2023/01/26 04:30:18;;;;;;;31.40;13.32;;;;;;;;;;10568477;27;20046;-75
2023/01/26 04:35:19;;;;;;;36.75;14.43;;;;;;;;;;10559542;28;20039;-81
2023/01/26 04:40:22;;;;;;;32.28;14.50;;;;;;;;;;10535352;28;20046;-74
2023/01/26 04:45:23;;;;;;;37.60;14.63;;;;;;;;;;10579223;28;20115;-75
2023/01/26 04:50:24;;;;;;;39.28;16.27;;;;;;;;;;10537127;27;20040;-78
2023/01/26 04:55:25;;;;;;;42.33;16.23;;;;;;;;;;10544316;28;20032;-74
2023/01/26 05:00:26;;;;;;;42.83;17.63;;;;;;;;;;10547711;28;20058;-75
2023/01/26 05:05:27;;;;;;;44.58;17.35;;;;;;;;;;10542860;28;20044;-76
2023/01/26 05:10:29;;;;;;;44.47;17.10;;;;;;;;;;10541964;28;20035;-77
2023/01/26 05:16:02;;;;;;;43.47;17.63;;;;;;;;;;10525799;28;20047;-86
2023/01/26 05:21:32;;;;;;;37.83;15.93;;;;;;;;;;10463170;28;20070;-82
2023/01/26 05:26:32;;;;;;;42.92;17.40;;;;;;;;;;10537788;28;20570;-75
2023/01/26 05:31:39;;;;;;;39.83;15.45;;;;;;;;;;10533373;28;20387;-78
2023/01/26 05:36:40;;;;;;;39.58;15.63;;;;;;;;;;10553239;28;20039;-77
2023/01/26 05:41:40;;;;;;;35.17;14.00;;;;;;;;;;10532087;28;20093;-76
2023/01/26 05:47:01;;;;;;;36.20;15.48;;;;;;;;;;10515617;28;20078;-76
2023/01/26 05:52:06;;;;;;;35.72;13.85;;;;;;;;;;10524481;28;20120;-78
2023/01/26 05:57:08;;;;;;;37.67;15.32;;;;;;;;;;10545904;28;20040;-71
2023/01/26 06:02:11;;;;;;;31.48;13.00;;;;;;;;;;10530268;28;20430;-73
2023/01/26 06:07:14;;;;;;;40.13;16.40;;;;;;;;;;10526346;28;20625;-76
2023/01/26 06:12:20;;;;;;;33.45;13.52;;;;;;;;;;10543214;28;20036;-74
2023/01/26 06:17:30;;;;;;;35.92;15.63;;;;;;;;;;10537340;28;20086;-72
2023/01/26 06:22:33;;;;;;;;;;;;;;;;;;10502927;28;20040;-71
2023/01/26 06:27:34;;;;;;;39.88;14.45;;;;;;;;;;10545748;28;19932;-73
2023/01/26 06:32:39;;;;;;;32.80;13.77;;;;;;;;;;10525315;28;20535;-73
2023/01/26 06:37:42;;;;;;;37.75;15.73;;;;;;;;;;10526897;27;20063;-69
2023/01/26 06:42:49;;;;;;;37.40;14.32;;;;;;;;;;10529603;28;20806;-73
2023/01/26 06:47:51;;;;;;;37.10;14.38;;;;;;;;;;10545677;28;20080;-74
2023/01/26 06:52:57;;;;;;;42.90;16.98;;;;;;;;;;10525537;28;20196;-75
2023/01/26 06:58:12;;;;;;;38.25;15.98;;;;;;;;;;10531887;28;20248;-72
2023/01/26 07:03:41;;;;;;;35.25;14.20;;;;;;;;;;10459788;28;20040;-76
2023/01/26 07:08:41;;;;;;;36.03;14.35;;;;;;;;;;10545445;22;20125;-76
2023/01/26 07:13:43;;;;;;;35.80;15.32;;;;;;;;;;10535988;28;20036;-76
2023/01/26 07:18:44;;;;;;;37.53;13.32;;;;;;;;;;10532858;28;20482;-77
2023/01/26 07:23:44;;;;;;;34.20;12.95;;;;;;;;;;10531551;28;20032;-78
2023/01/26 07:28:45;;;;;;;36.55;13.02;;;;;;;;;;10521543;28;20159;-78
2023/01/26 07:33:46;;;;;;;36.38;12.77;;;;;;;;;;10525950;28;20055;-75
2023/01/26 07:38:47;;;;;;;28.20;13.15;;;;;;;;;;10543407;28;20531;-78
2023/01/26 07:43:48;;;;;;;31.02;12.85;;;;;;;;;;10546072;28;20446;-75
2023/01/26 07:48:49;;;;;;;29.98;12.10;;;;;;;;;;10491850;28;20038;-80
2023/01/26 07:53:50;;;;;;;32.85;13.40;;;;;;;;;;10531308;28;20464;-77
2023/01/26 07:58:52;;;;;;;32.40;12.88;;;;;;;;;;10545536;28;20116;-76
2023/01/26 08:03:52;;;;;;;31.63;13.18;;;;;;;;;;10516285;28;20239;-78
2023/01/26 08:08:52;;;;;;;24.50;10.13;;;;;;;;;;10497247;28;20044;-77
2023/01/26 08:13:53;;;;;;;29.67;11.10;;;;;;;;;;10469902;28;20124;-75
2023/01/26 08:18:54;;;;;;;25.52;10.98;;;;;;;;;;10478793;28;20044;-75
2023/01/26 08:23:54;;;;;;;23.80;10.47;;;;;;;;;;10471362;28;20139;-76
2023/01/26 08:28:55;;;;;;;21.92;10.13;;;;;;;;;;10464646;28;20303;-77
2023/01/26 08:33:55;;;;;;;24.80;8.70;;;;;;;;;;10469844;28;20039;-76
2023/01/26 08:38:57;;;;;;;14.80;7.32;;;;;;;;;;10466334;28;20492;-75
2023/01/26 08:43:58;;;;;;;17.27;7.38;;;;;;;;;;10468129;28;20157;-80
2023/01/26 08:48:58;;;;;;;18.67;9.25;;;;;;;;;;10432671;28;20389;-76
2023/01/26 08:53:59;;;;;;;25.65;9.73;;;;;;;;;;10433239;28;20041;-77
2023/01/26 08:59:00;;;;;;;28.05;11.02;;;;;;;;;;10430774;28;20045;-83
2023/01/26 09:04:01;;;;;;;20.13;9.18;;;;;;;;;;10433092;28;20127;-75
2023/01/26 09:09:02;;;;;;;17.13;7.85;;;;;;;;;;10441744;28;20033;-77
2023/01/26 09:14:02;;;;;;;23.88;8.25;;;;;;;;;;10442693;28;20051;-76
2023/01/26 09:19:03;;;;;;;17.50;8.43;;;;;;;;;;10450774;28;20122;-76
2023/01/26 09:24:04;;;;;;;17.55;7.53;;;;;;;;;;10457984;28;20314;-77
2023/01/26 09:29:04;;;;;;;18.42;8.30;;;;;;;;;;10452637;28;20032;-80
2023/01/26 09:34:05;;;;;;;19.73;8.60;;;;;;;;;;10443964;28;20041;-78
2023/01/26 09:39:05;;;;;;;18.83;8.30;;;;;;;;;;10439633;28;20295;-76
2023/01/26 09:44:18;;;;;;;18.75;8.85;;;;;;;;;;10448972;28;20037;-75
2023/01/26 09:49:22;;;;;;;16.85;8.02;;;;;;;;;;10458109;28;20392;-74
2023/01/26 09:54:43;;;;;;;20.40;9.77;;;;;;;;;;10436273;28;20047;-77
2023/01/26 09:59:49;;;;;;;23.02;9.93;;;;;;;;;;10440470;28;20037;-75
2023/01/26 10:04:50;;;;;;;23.33;9.63;;;;;;;;;;10417457;28;20140;-77
2023/01/26 10:09:52;;;;;;;25.45;10.35;;;;;;;;;;10426909;28;20459;-76
2023/01/26 10:14:57;;;;;;;25.30;10.48;;;;;;;;;;10436064;28;20098;-77
2023/01/26 10:20:03;;;;;;;24.35;10.95;;;;;;;;;;10412959;28;20068;-79
2023/01/26 10:25:12;;;;;;;25.23;10.82;;;;;;;;;;10414019;28;20077;-80
2023/01/26 10:30:16;;;;;;;21.25;9.35;;;;;;;;;;10444067;28;20045;-78
2023/01/26 10:35:22;;;;;;;20.55;9.98;;;;;;;;;;10440022;28;20446;-76
2023/01/26 10:40:22;;;;;;;23.67;10.50;;;;;;;;;;10418596;28;20041;-78
2023/01/26 10:45:32;;;;;;;21.63;10.07;;;;;;;;;;10449847;28;20362;-81
2023/01/26 10:50:33;;;;;;;24.50;11.07;;;;;;;;;;10480166;28;20060;-75
2023/01/26 10:55:36;;;;;;;29.75;12.32;;;;;;;;;;10474813;28;20038;-76
2023/01/26 11:00:39;;;;;;;27.08;11.52;;;;;;;;;;10473616;28;20119;-76
2023/01/26 11:05:39;;;;;;;39.08;14.55;;;;;;;;;;10431192;28;20053;-77
2023/01/26 11:10:49;;;;;;;31.70;13.23;;;;;;;;;;10412794;28;20144;-78
2023/01/26 11:16:10;;;;;;;36.60;14.32;;;;;;;;;;10426118;28;20425;-78
2023/01/26 11:21:26;;;;;;;33.83;13.05;;;;;;;;;;10450512;28;20041;-77
2023/01/26 11:26:47;;;;;;;33.10;13.85;;;;;;;;;;10430141;28;20370;-75
2023/01/26 11:32:05;;;;;;;32.83;15.02;;;;;;;;;;10417530;28;20113;-76
2023/01/26 11:37:05;;;;;;;33.72;14.45;;;;;;;;;;10440692;28;20060;-76
2023/01/26 11:42:29;;;;;;;35.63;14.50;;;;;;;;;;10434339;28;20065;-76
2023/01/26 11:47:38;;;;;;;36.05;15.90;;;;;;;;;;10442283;28;20041;-76
2023/01/26 11:52:48;;;;;;;36.97;14.50;;;;;;;;;;10412966;28;20072;-79
2023/01/26 11:57:48;;;;;;;29.17;13.43;;;;;;;;;;10443536;28;20059;-77
2023/01/26 12:03:00;;;;;;;32.67;13.05;;;;;;;;;;10438218;28;20040;-80
2023/01/26 12:08:09;;;;;;;28.05;12.95;;;;;;;;;;10438134;28;20052;-76
2023/01/26 12:13:17;;;;;;;29.95;12.55;;;;;;;;;;10410315;28;20091;-78
2023/01/26 12:18:40;;;;;;;28.48;13.45;;;;;;;;;;10447868;28;20044;-78
2023/01/26 12:23:48;;;;;;;26.15;11.88;;;;;;;;;;10434117;28;20057;-76
2023/01/26 12:29:07;;;;;;;30.30;11.82;;;;;;;;;;10450848;28;20057;-76
2023/01/26 12:34:11;;;;;;;32.83;13.70;;;;;;;;;;10443777;28;20408;-77
2023/01/26 12:39:21;;;;;;;27.00;12.20;;;;;;;;;;10442314;28;20041;-79
2023/01/26 12:44:27;;;;;;;26.85;12.00;;;;;;;;;;10447105;28;20697;-77
2023/01/26 12:49:31;;;;;;;21.48;11.07;;;;;;;;;;10446789;28;20091;-78
2023/01/26 12:54:44;;;;;;;26.83;12.13;;;;;;;;;;10436401;28;20032;-77
2023/01/26 12:59:45;;;;;;;26.63;11.33;;;;;;;;;;10437261;28;20045;-78
2023/01/26 13:04:45;;;;;;;27.48;13.43;;;;;;;;;;10422440;28;20049;-75
2023/01/26 13:10:06;;;;;;;27.52;11.50;;;;;;;;;;10463966;28;20049;-76
2023/01/26 13:15:12;;;;;;;30.05;12.40;;;;;;;;;;10441100;28;20075;-75
2023/01/26 13:20:32;;;;;;;27.48;12.15;;;;;;;;;;10442415;28;20040;-77
2023/01/26 13:25:33;;;;;;;28.25;12.77;;;;;;;;;;10452617;28;20040;-75
2023/01/26 13:30:38;;;;;;;28.60;12.35;;;;;;;;;;10458825;28;20258;-75
2023/01/26 13:35:39;;;;;;;29.50;12.48;;;;;;;;;;10447905;28;20029;-78
2023/01/26 13:40:45;;;;;;;29.25;12.77;;;;;;;;;;10449846;28;20041;-79
2023/01/26 13:45:48;;;;;;;28.00;11.82;;;;;;;;;;10434565;28;20060;-79
2023/01/26 13:50:50;;;;;;;25.65;12.25;;;;;;;;;;10434333;28;20037;-76
2023/01/26 13:55:52;;;;;;;31.23;12.95;;;;;;;;;;10433122;28;20049;-78
2023/01/26 14:00:58;;;;;;;25.75;10.48;;;;;;;;;;10415049;28;20041;-83
2023/01/26 14:06:25;;;;;;;29.48;12.93;;;;;;;;;;10442734;28;20052;-80
2023/01/26 14:11:26;;;;;;;29.27;12.85;;;;;;;;;;10401713;28;20045;-75
2023/01/26 14:16:28;;;;;;;27.60;12.70;;;;;;;;;;10435071;28;20055;-77
2023/01/26 14:21:31;;;;;;;27.30;12.20;;;;;;;;;;10416547;28;20045;-78
2023/01/26 14:26:32;;;;;;;31.60;13.77;;;;;;;;;;10435404;28;20049;-77
2023/01/26 14:31:32;;;;;;;27.85;12.20;;;;;;;;;;10431410;28;20047;-81
2023/01/26 14:36:37;;;;;;;28.27;12.65;;;;;;;;;;10430008;28;20363;-80
2023/01/26 14:41:40;;;;;;;29.40;13.30;;;;;;;;;;10418310;28;20037;-78
2023/01/26 14:46:48;;;;;;;24.97;10.73;;;;;;;;;;10434333;28;20079;-78
2023/01/26 14:51:55;;;;;;;22.27;11.43;;;;;;;;;;10434293;28;20057;-79
2023/01/26 14:56:56;;;;;;;27.52;12.60;;;;;;;;;;10423157;28;20055;-78
2023/01/26 15:02:13;;;;;;;27.17;11.90;;;;;;;;;;10423090;28;20036;-79
2023/01/26 15:07:21;;;;;;;33.53;13.60;;;;;;;;;;10433215;28;20163;-78
2023/01/26 15:12:22;;;;;;;26.45;12.13;;;;;;;;;;10433613;28;20116;-77
2023/01/26 15:17:34;;;;;;;26.35;12.57;;;;;;;;;;10434073;28;20049;-77
2023/01/26 15:22:35;;;;;;;27.73;13.23;;;;;;;;;;10427790;28;20098;-77
2023/01/26 15:27:35;;;;;;;28.55;13.52;;;;;;;;;;10441838;28;20106;-78
2023/01/26 15:32:38;;;;;;;27.40;13.00;;;;;;;;;;10448775;28;20025;-80
2023/01/26 15:37:38;;;;;;;24.23;11.80;;;;;;;;;;10414482;28;20037;-82
2023/01/26 15:42:40;;;;;;;25.58;11.88;;;;;;;;;;10428191;28;20029;-79
2023/01/26 15:47:40;;;;;;;23.08;10.95;;;;;;;;;;10469155;28;20451;-76
2023/01/26 15:52:40;;;;;;;26.52;12.27;;;;;;;;;;10488431;28;20040;-83
2023/01/26 15:57:41;;;;;;;23.95;10.60;;;;;;;;;;10516408;28;20033;-81
2023/01/26 16:02:41;;;;;;;20.13;10.25;;;;;;;;;;10522830;28;20055;-78
2023/01/26 16:07:42;;;;;;;21.70;10.23;;;;;;;;;;10516805;28;20060;-80
2023/01/26 16:12:43;;;;;;;20.15;10.82;;;;;;;;;;10527549;28;20119;-78
2023/01/26 16:17:43;;;;;;;24.05;10.20;;;;;;;;;;10513349;28;20068;-79
2023/01/26 16:22:44;;;;;;;22.63;11.48;;;;;;;;;;10526110;28;20055;-82
2023/01/26 16:27:44;;;;;;;20.38;9.20;;;;;;;;;;10511917;28;20044;-78
2023/01/26 16:32:45;;;;;;;21.17;10.70;;;;;;;;;;10496941;28;20115;-79
2023/01/26 16:37:45;;;;;;;23.17;11.85;;;;;;;;;;10489959;28;20097;-79
2023/01/26 16:42:50;;;;;;;21.23;9.43;;;;;;;;;;10522155;28;20040;-78
2023/01/26 16:47:53;;;;;;;23.75;10.45;;;;;;;;;;10518326;28;20404;-79
2023/01/26 16:52:54;;;;;;;20.73;10.15;;;;;;;;;;10543490;28;20066;-79
2023/01/26 16:57:54;;;;;;;22.65;9.85;;;;;;;;;;10530732;28;20055;-80
2023/01/26 17:02:54;;;;;;;23.10;10.90;;;;;;;;;;10520048;28;20040;-77
2023/01/26 17:07:55;;;;;;;25.17;11.75;;;;;;;;;;10503090;28;20131;-79
2023/01/26 17:12:55;;;;;;;29.33;12.95;;;;;;;;;;10487755;28;20028;-78
2023/01/26 17:17:56;;;;;;;23.20;11.00;;;;;;;;;;10510998;28;20089;-78
2023/01/26 17:22:56;;;;;;;27.80;11.57;;;;;;;;;;10513512;28;21167;-80
2023/01/26 17:27:58;;;;;;;29.40;12.82;;;;;;;;;;10507562;28;20567;-78
2023/01/26 17:33:00;;;;;;;27.27;13.80;;;;;;;;;;10511948;28;20032;-78
2023/01/26 17:38:01;;;;;;;26.98;12.40;;;;;;;;;;10519321;28;20111;-78
2023/01/26 17:43:01;;;;;;;25.23;10.70;;;;;;;;;;10460725;28;1127269;-77
2023/01/26 17:48:02;;;;;;;23.15;10.68;;;;;;;;;;10481740;28;20751;-78
2023/01/26 17:53:03;;;;;;;23.85;11.57;;;;;;;;;;10461922;28;20047;-77
2023/01/26 17:58:04;;;;;;;19.25;9.35;;;;;;;;;;10452178;28;20409;-80
2023/01/26 18:03:05;;;;;;;23.30;10.57;;;;;;;;;;10479551;28;20040;-77
2023/01/26 18:08:05;;;;;;;21.50;9.68;;;;;;;;;;10480978;28;20044;-81
2023/01/26 18:13:07;;;;;;;20.52;10.50;;;;;;;;;;10476123;28;20503;-79
2023/01/26 18:18:07;;;;;;;21.47;9.57;;;;;;;;;;10463443;28;20040;-82
2023/01/26 18:23:08;;;;;;;22.35;10.48;;;;;;;;;;10487277;28;20290;-76
2023/01/26 18:28:10;;;;;;;21.48;10.82;;;;;;;;;;10515177;28;20056;-80
2023/01/26 18:33:10;;;;;;;24.17;11.05;;;;;;;;;;10483493;28;20040;-78
2023/01/26 18:38:11;;;;;;;22.13;10.80;;;;;;;;;;10473652;28;20111;-81
2023/01/26 18:43:11;;;;;;;24.35;12.20;;;;;;;;;;10470218;28;20043;-80
2023/01/26 18:48:12;;;;;;;23.55;10.15;;;;;;;;;;10436450;28;20049;-83
2023/01/26 18:53:13;;;;;;;25.67;12.25;;;;;;;;;;10404065;28;20032;-79
2023/01/26 18:58:13;;;;;;;21.98;11.35;;;;;;;;;;10421058;28;20037;-80
2023/01/26 19:03:13;;;;;;;18.67;9.30;;;;;;;;;;10424937;28;20086;-79
2023/01/26 19:08:14;;;;;;;18.55;9.73;;;;;;;;;;10421542;28;20499;-81
2023/01/26 19:13:14;;;;;;;15.95;9.45;;;;;;;;;;10417037;28;20475;-79
2023/01/26 19:18:15;;;;;;;15.35;8.52;;;;;;;;;;10438721;28;20033;-79
2023/01/26 19:23:15;;;;;;;16.25;7.90;;;;;;;;;;10490184;28;20082;-79
2023/01/26 19:28:16;;;;;;;15.45;7.95;;;;;;;;;;10497022;28;20116;-80
2023/01/26 19:33:23;;;;;;;13.95;7.50;;;;;;;;;;10468409;28;20041;-78
2023/01/26 19:38:24;;;;;;;14.50;7.63;;;;;;;;;;10451354;28;20079;-78
2023/01/26 19:43:24;;;;;;;13.63;7.32;;;;;;;;;;10443363;28;20064;-80
2023/01/26 19:48:27;;;;;;;16.80;8.38;;;;;;;;;;10453278;28;20064;-78
2023/01/26 19:53:27;;;;;;;15.63;7.97;;;;;;;;;;10453622;28;20044;-77
2023/01/26 19:58:28;;;;;;;15.40;7.85;;;;;;;;;;10472081;28;20052;-77
2023/01/26 20:03:30;;;;;;;15.90;8.35;;;;;;;;;;10467749;28;20120;-76
2023/01/26 20:08:31;;;;;;;14.73;7.43;;;;;;;;;;10474984;28;20106;-80
2023/01/26 20:13:33;;;;;;;16.13;7.28;;;;;;;;;;10471468;28;20125;-79
2023/01/26 20:18:34;;;;;;;15.80;8.20;;;;;;;;;;10481935;28;20046;-81
2023/01/26 20:23:35;;;;;;;11.80;6.95;;;;;;;;;;10475144;28;20044;-79
2023/01/26 20:28:38;;;;;;;12.95;7.47;;;;;;;;;;10480951;28;20048;-79
2023/01/26 20:33:39;;;;;;;15.00;8.17;;;;;;;;;;10474773;28;20056;-79
2023/01/26 20:38:39;;;;;;;12.23;6.68;;;;;;;;;;10464303;28;20295;-79
2023/01/26 20:43:40;;;;;;;11.77;6.90;;;;;;;;;;10477677;28;20044;-78
2023/01/26 20:48:40;;;;;;;11.88;7.03;;;;;;;;;;10480954;28;20048;-82
2023/01/26 20:53:41;;;;;;;13.80;8.18;;;;;;;;;;10528515;28;20029;-90
2023/01/26 20:58:42;;;;;;;13.27;7.22;;;;;;;;;;10496463;28;20094;-78
2023/01/26 21:03:43;;;;;;;13.90;7.82;;;;;;;;;;10486192;28;20090;-80
2023/01/26 21:08:44;;;;;;;13.52;7.53;;;;;;;;;;10483122;28;20048;-79
2023/01/26 21:13:44;;;;;;;12.85;7.45;;;;;;;;;;10458119;28;20405;-80
2023/01/26 21:18:45;;;;;;;15.43;8.05;;;;;;;;;;10462796;28;20542;-80
2023/01/26 21:23:46;;;;;;;15.30;8.18;;;;;;;;;;10455387;28;20101;-78
2023/01/26 21:28:50;;;;;;;17.45;8.70;;;;;;;;;;10493781;28;20505;-78
2023/01/26 21:33:51;;;;;;;16.13;9.23;;;;;;;;;;10491867;28;20040;-78
2023/01/26 21:38:53;;;;;;;16.48;8.20;;;;;;;;;;10499658;28;20096;-77
2023/01/26 21:43:54;;;;;;;14.23;8.18;;;;;;;;;;10464872;28;20048;-76
2023/01/26 21:48:55;;;;;;;15.65;8.23;;;;;;;;;;10483103;28;20044;-76
2023/01/26 21:53:56;;;;;;;17.17;8.73;;;;;;;;;;10480243;28;20032;-77
2023/01/26 21:59:01;;;;;;;18.63;9.38;;;;;;;;;;10481318;28;20124;-76
2023/01/26 22:04:03;;;;;;;16.55;9.18;;;;;;;;;;10473713;28;20073;-80
2023/01/26 22:09:04;;;;;;;19.55;9.20;;;;;;;;;;10458362;28;20052;-76
2023/01/26 22:14:05;;;;;;;18.23;9.35;;;;;;;;;;10483261;28;20047;-77
2023/01/26 22:19:05;;;;;;;18.00;9.27;;;;;;;;;;10491178;28;20075;-77
2023/01/26 22:24:06;;;;;;;18.00;9.73;;;;;;;;;;10496853;28;20593;-77
2023/01/26 22:29:07;;;;;;;19.33;9.13;;;;;;;;;;10476665;28;20050;-79
2023/01/26 22:34:09;;;;;;;18.38;8.85;;;;;;;;;;10491575;28;20128;-76
2023/01/26 22:39:11;;;;;;;19.42;10.20;;;;;;;;;;10494003;28;20072;-78
2023/01/26 22:44:11;;;;;;;18.48;9.38;;;;;;;;;;10473638;28;20135;-78
2023/01/26 22:49:12;;;;;;;17.63;8.70;;;;;;;;;;10435792;28;20501;-78
2023/01/26 22:54:12;;;;;;;18.90;9.15;;;;;;;;;;10427214;28;20055;-79
2023/01/26 22:59:12;;;;;;;21.23;9.88;;;;;;;;;;10436991;28;20044;-78
2023/01/26 23:04:15;;;;;;;17.05;9.10;;;;;;;;;;10440246;28;20045;-77
2023/01/26 23:09:16;;;;;;;18.83;9.73;;;;;;;;;;10478525;28;20040;-78
2023/01/26 23:14:16;;;;;;;16.40;8.90;;;;;;;;;;10473950;28;20048;-83
2023/01/26 23:19:16;;;;;;;24.63;10.77;;;;;;;;;;10490654;28;20029;-85
2023/01/26 23:24:17;;;;;;;17.80;8.88;;;;;;;;;;10504318;28;20027;-80
2023/01/26 23:29:17;;;;;;;20.35;9.68;;;;;;;;;;10482132;28;20056;-77
2023/01/26 23:34:18;;;;;;;21.15;11.25;;;;;;;;;;10468672;28;20022;-78
2023/01/26 23:39:19;;;;;;;20.90;10.32;;;;;;;;;;10463041;28;20037;-79
2023/01/26 23:44:20;;;;;;;18.15;9.90;;;;;;;;;;10434527;28;20048;-81
2023/01/26 23:49:20;;;;;;;22.13;11.07;;;;;;;;;;10431222;28;20797;-78
2023/01/26 23:54:21;;;;;;;17.45;9.90;;;;;;;;;;10425076;28;20039;-79
2023/01/26 23:59:21;;;;;;;20.13;9.27;;;;;;;;;;10418634;28;20032;-78
